Time;durP1;ratioP1;P1;durP2;ratioP2;P2;SDS_P1;SDS_P2;PMS_P1;PMS_P2;Temp;Humidity;BMP_temperature;BMP_pressure;BME280_temperature;BME280_humidity;BME280_pressure;Samples;Min_cycle;Max_cycle;Signal;HPM_P1;HPM_P2
2023/03/31 00:02:24;;;;;;;3.80;1.57;;;;;;;13.81;61.22;97337.44;8382759;28;20436;-69
2023/03/31 00:06:28;;;;;;;3.77;1.40;;;;;;;13.85;61.44;97329.31;8382570;28;20346;-69
2023/03/31 00:10:33;;;;;;;3.43;1.20;;;;;;;13.86;61.89;97323.19;8382605;28;20238;-69
2023/03/31 00:14:36;;;;;;;3.80;1.30;;;;;;;13.86;61.94;97311.94;8382360;28;20239;-68
2023/03/31 00:18:46;;;;;;;2.77;1.50;;;;;;;13.73;61.62;97300.69;8382120;28;20239;-69
2023/03/31 00:22:49;;;;;;;3.43;1.60;;;;;;;13.83;61.26;97292.16;8381891;28;20235;-69
2023/03/31 00:26:53;;;;;;;3.53;1.63;;;;;;;13.71;61.18;97293.00;8382006;28;20237;-69
2023/03/31 00:31:01;;;;;;;4.87;1.80;;;;;;;13.71;61.04;97268.72;8381545;28;20434;-68
2023/03/31 00:35:04;;;;;;;4.77;1.60;;;;;;;13.66;61.53;97253.44;8381750;28;20232;-69
2023/03/31 00:39:07;;;;;;;3.20;1.43;;;;;;;13.69;61.09;97258.44;8381658;28;20253;-69
2023/03/31 00:43:28;;;;;;;3.37;1.73;;;;;;;13.81;60.48;97264.59;8381633;28;20226;-69
2023/03/31 00:47:34;;;;;;;3.73;1.37;;;;;;;13.83;60.54;97260.09;8381348;28;20235;-69
2023/03/31 00:51:37;;;;;;;6.57;1.60;;;;;;;13.81;60.36;97251.56;8381472;28;20235;-69
2023/03/31 00:55:42;;;;;;;4.30;1.80;;;;;;;13.74;61.58;97245.94;8380942;28;20242;-68
2023/03/31 00:59:49;;;;;;;5.40;1.80;;;;;;;13.71;60.35;97237.50;8380578;28;20223;-68
2023/03/31 01:03:52;;;;;;;4.87;1.60;;;;;;;13.71;61.50;97235.75;8380008;28;20422;-68
2023/03/31 01:07:55;;;;;;;3.47;1.50;;;;;;;13.56;60.85;97214.22;8380677;28;20298;-68
2023/03/31 01:11:58;;;;;;;5.17;1.63;;;;;;;13.59;60.24;97211.38;8380624;28;20233;-69
2023/03/31 01:16:02;;;;;;;5.10;1.87;;;;;;;13.59;60.49;97200.16;8380439;28;21528;-69
2023/03/31 01:20:13;;;;;;;7.53;1.83;;;;;;;13.47;59.81;97197.47;8380200;28;20225;-69
2023/03/31 01:25:00;;;;;;;4.73;1.60;;;;;;;13.29;60.31;97194.31;8380166;28;20230;-69
2023/03/31 01:29:08;;;;;;;4.23;1.60;;;;;;;13.50;60.05;97188.63;8379900;28;20229;-69
2023/03/31 01:33:47;;;;;;;5.23;2.00;;;;;;;12.96;61.09;97181.81;8380141;28;20232;-69
2023/03/31 01:38:15;;;;;;;7.67;1.90;;;;;;;13.33;60.28;97175.94;8355555;28;20426;-68
2023/03/31 01:42:21;;;;;;;4.47;2.00;;;;;;;13.23;60.40;97162.69;8379637;28;20229;-69
2023/03/31 01:46:28;;;;;;;3.90;1.83;;;;;;;13.34;59.58;97164.59;8379716;28;20224;-68
2023/03/31 01:50:35;;;;;;;3.97;2.03;;;;;;;13.48;59.79;97161.91;8379754;28;20480;-69
2023/03/31 01:54:42;;;;;;;4.83;1.70;;;;;;;13.53;59.45;97145.97;8379407;28;20246;-69
2023/03/31 01:58:51;;;;;;;4.13;1.70;;;;;;;13.40;59.27;97148.56;8378985;28;20407;-69
2023/03/31 02:02:58;;;;;;;3.90;1.70;;;;;;;13.32;59.82;97143.06;8379176;28;20235;-69
2023/03/31 02:07:03;;;;;;;6.73;1.57;;;;;;;13.33;59.28;97135.16;8379360;28;20509;-69
2023/03/31 02:11:06;;;;;;;3.63;1.50;;;;;;;13.57;59.19;97130.03;8378961;28;20495;-68
2023/03/31 02:15:14;;;;;;;4.20;1.80;;;;;;;13.52;58.80;97111.31;8378849;28;20256;-69
2023/03/31 02:19:18;;;;;;;4.67;1.60;;;;;;;13.66;58.64;97125.97;8379100;28;20233;-69
2023/03/31 02:23:25;;;;;;;4.80;1.80;;;;;;;13.66;58.57;97116.38;8378872;28;20236;-69
2023/03/31 02:27:30;;;;;;;4.13;1.60;;;;;;;13.61;58.58;97131.50;8378985;28;20231;-69
2023/03/31 02:31:39;;;;;;;4.30;1.80;;;;;;;13.57;58.65;97108.38;8378810;28;20272;-69
2023/03/31 02:35:42;;;;;;;5.30;1.80;;;;;;;13.37;58.82;97102.00;8378118;28;20280;-67
2023/03/31 02:39:46;;;;;;;5.57;2.20;;;;;;;13.57;58.12;97092.78;8378636;28;20245;-68
2023/03/31 02:43:49;;;;;;;5.40;1.87;;;;;;;13.64;58.66;97087.03;8378681;28;20230;-69
2023/03/31 02:47:53;;;;;;;4.40;1.70;;;;;;;13.57;57.95;97082.38;8378392;28;20226;-69
2023/03/31 02:52:19;;;;;;;4.53;1.60;;;;;;;13.52;57.83;97076.66;8378480;28;20233;-69
2023/03/31 02:56:36;;;;;;;4.40;1.77;;;;;;;13.41;58.05;97072.22;8377861;28;20253;-68
2023/03/31 03:01:04;;;;;;;3.53;1.67;;;;;;;13.28;58.18;97072.22;8378276;28;20528;-69
2023/03/31 03:05:25;;;;;;;3.50;1.40;;;;;;;13.12;58.36;97064.66;8377925;28;20297;-69
2023/03/31 03:09:35;;;;;;;4.77;1.87;;;;;;;13.36;58.05;97059.53;8377225;28;20236;-69
2023/03/31 03:13:44;;;;;;;4.17;1.70;;;;;;;13.30;58.09;97049.56;8378019;28;20222;-69
2023/03/31 03:17:48;;;;;;;2.70;1.53;;;;;;;13.57;57.81;97035.56;8377553;28;20223;-68
2023/03/31 03:21:52;;;;;;;4.13;1.70;;;;;;;13.51;57.55;97023.81;8378008;28;20339;-69
2023/03/31 03:25:55;;;;;;;4.77;2.00;;;;;;;13.52;57.75;97022.03;8379099;28;20245;-69
2023/03/31 03:29:57;;;;;;;6.17;1.90;;;;;;;13.55;57.98;97022.66;8383705;28;20240;-69
2023/03/31 03:34:00;;;;;;;6.57;2.33;;;;;;;13.58;57.96;97014.63;8383529;28;20450;-69
2023/03/31 03:38:04;;;;;;;5.30;1.90;;;;;;;13.45;58.20;97006.88;8383737;28;20230;-68
2023/03/31 03:42:07;;;;;;;3.20;1.70;;;;;;;13.57;57.81;96983.53;8383497;28;20510;-68
2023/03/31 03:46:10;;;;;;;3.97;1.67;;;;;;;13.46;57.90;96990.34;8383316;28;20227;-68
2023/03/31 03:50:13;;;;;;;4.47;1.67;;;;;;;13.41;57.49;96974.22;8383041;28;20301;-68
2023/03/31 03:54:20;;;;;;;6.10;1.93;;;;;;;13.33;57.62;96986.09;8382867;28;20221;-68
2023/03/31 03:58:23;;;;;;;6.53;2.00;;;;;;;13.22;57.73;96974.69;8383069;28;20558;-68
2023/03/31 04:02:27;;;;;;;4.67;1.70;;;;;;;13.22;57.94;96992.06;8382850;28;20236;-68
2023/03/31 04:06:30;;;;;;;5.73;1.60;;;;;;;13.01;58.55;96961.44;8382915;28;20403;-68
2023/03/31 04:10:35;;;;;;;4.17;1.50;;;;;;;13.03;58.40;96958.72;8382824;28;20541;-68
2023/03/31 04:14:38;;;;;;;4.77;1.90;;;;;;;13.04;58.44;96952.56;8382331;28;20419;-69
2023/03/31 04:18:41;;;;;;;4.90;1.80;;;;;;;12.94;59.18;96946.38;8382472;28;20230;-69
2023/03/31 04:22:46;;;;;;;4.40;1.90;;;;;;;12.83;59.60;96947.09;8381948;28;20519;-68
2023/03/31 04:26:50;;;;;;;4.77;1.90;;;;;;;13.12;58.92;96934.69;8382161;28;20237;-68
2023/03/31 04:30:53;;;;;;;5.17;1.90;;;;;;;12.80;60.57;96921.38;8381860;28;20233;-69
2023/03/31 04:35:02;;;;;;;4.60;2.10;;;;;;;12.93;60.45;96911.78;8381837;28;20229;-68
2023/03/31 04:39:09;;;;;;;5.90;2.13;;;;;;;12.93;60.40;96901.38;8380692;28;20230;-70
2023/03/31 04:43:13;;;;;;;4.50;2.10;;;;;;;12.82;60.63;96878.75;8381745;28;20228;-69
2023/03/31 04:47:16;;;;;;;4.53;2.07;;;;;;;12.98;60.75;96870.66;8381560;28;20429;-69
2023/03/31 04:51:19;;;;;;;4.77;2.20;;;;;;;13.01;60.75;96872.25;8381287;28;20552;-68
2023/03/31 04:55:22;;;;;;;4.00;1.57;;;;;;;13.03;60.46;96862.56;8381232;28;20229;-68
2023/03/31 04:59:26;;;;;;;5.00;1.87;;;;;;;13.33;59.69;96856.09;8381114;28;20236;-68
2023/03/31 05:03:29;;;;;;;4.97;1.90;;;;;;;13.36;59.37;96864.50;8381070;28;20243;-69
2023/03/31 05:07:32;;;;;;;5.87;1.73;;;;;;;13.41;59.52;96854.59;8381142;28;20237;-69
2023/03/31 05:11:35;;;;;;;3.43;2.07;;;;;;;13.29;59.99;96858.09;8381015;28;20229;-69
2023/03/31 05:15:39;;;;;;;4.73;2.03;;;;;;;13.47;59.59;96841.13;8380849;28;20226;-69
2023/03/31 05:19:42;;;;;;;2.70;1.97;;;;;;;13.41;59.80;96830.38;8380026;28;20237;-68
2023/03/31 05:23:45;;;;;;;7.20;2.20;;;;;;;13.11;61.10;96813.44;8379999;28;20304;-68
2023/03/31 05:27:49;;;;;;;6.90;3.70;;;;;;;13.21;60.70;96804.06;8380587;28;20238;-68
2023/03/31 05:31:54;;;;;;;6.97;2.70;;;;;;;13.29;60.11;96787.88;8380163;28;20231;-68
2023/03/31 05:35:58;;;;;;;6.50;2.47;;;;;;;13.22;59.82;96771.91;8379924;28;20244;-68
2023/03/31 05:40:03;;;;;;;6.73;3.10;;;;;;;13.22;60.44;96758.09;8380203;28;20245;-69
2023/03/31 05:44:06;;;;;;;6.27;2.80;;;;;;;13.38;59.89;96761.22;8380009;28;20419;-69
2023/03/31 05:48:10;;;;;;;7.37;2.33;;;;;;;13.41;60.06;96763.59;8379289;28;20229;-69
2023/03/31 05:52:15;;;;;;;7.63;2.33;;;;;;;13.45;60.10;96769.41;8379703;28;20237;-69
2023/03/31 05:56:19;;;;;;;6.80;1.90;;;;;;;12.97;61.31;96748.66;8379535;28;20399;-69
2023/03/31 06:00:22;;;;;;;4.90;1.93;;;;;;;13.16;61.40;96755.94;8379253;28;20226;-69
2023/03/31 06:04:26;;;;;;;6.80;2.20;;;;;;;13.04;61.15;96755.06;8379125;28;20231;-69
2023/03/31 06:08:29;;;;;;;4.07;2.00;;;;;;;13.29;60.48;96756.69;8379168;28;20551;-69
2023/03/31 06:12:32;;;;;;;4.77;2.50;;;;;;;13.28;60.05;96736.81;8379102;28;20295;-69
2023/03/31 06:16:35;;;;;;;7.70;2.50;;;;;;;12.91;60.72;96732.59;8378895;28;20425;-69
2023/03/31 06:20:41;;;;;;;7.63;2.37;;;;;;;13.28;60.22;96747.22;8378766;28;20244;-69
2023/03/31 06:24:44;;;;;;;5.97;2.20;;;;;;;13.41;60.61;96757.56;8378124;28;20236;-69
2023/03/31 06:28:47;;;;;;;6.53;2.63;;;;;;;13.44;60.39;96759.91;8379095;28;20228;-69
2023/03/31 06:32:50;;;;;;;8.20;2.37;;;;;;;13.30;60.61;96761.78;8378867;28;20294;-68
2023/03/31 06:36:54;;;;;;;6.43;2.50;;;;;;;13.50;60.73;96754.28;8378797;28;20301;-69
2023/03/31 06:40:57;;;;;;;7.83;2.60;;;;;;;13.46;60.40;96745.88;8378743;28;20228;-69
2023/03/31 06:44:59;;;;;;;5.07;2.80;;;;;;;13.33;61.04;96755.53;8378447;28;20231;-69
2023/03/31 06:49:02;;;;;;;7.47;2.93;;;;;;;13.40;60.74;96763.69;8378549;28;20284;-69
2023/03/31 06:53:06;;;;;;;5.87;2.70;;;;;;;13.22;61.78;96755.47;8378480;28;20226;-69
2023/03/31 06:57:09;;;;;;;6.30;2.23;;;;;;;13.36;61.01;96754.47;8378139;28;20454;-69
2023/03/31 07:01:12;;;;;;;7.27;2.77;;;;;;;13.10;61.25;96749.44;8379712;28;20410;-69
2023/03/31 07:05:15;;;;;;;6.47;2.50;;;;;;;13.06;61.79;96740.16;8384712;28;20287;-69
2023/03/31 07:09:20;;;;;;;5.33;2.57;;;;;;;13.12;62.07;96739.75;8385005;28;20452;-69
2023/03/31 07:13:24;;;;;;;5.93;2.60;;;;;;;13.04;62.04;96745.50;8384327;28;20240;-69
2023/03/31 07:17:26;;;;;;;4.77;2.40;;;;;;;13.00;62.80;96728.47;8384289;28;20226;-69
2023/03/31 07:21:29;;;;;;;6.63;2.77;;;;;;;12.89;63.74;96718.06;8384364;28;20240;-69
2023/03/31 07:25:34;;;;;;;5.20;2.50;;;;;;;12.98;62.81;96704.34;8384064;28;20233;-69
2023/03/31 07:29:39;;;;;;;7.43;3.53;;;;;;;12.72;64.53;96698.50;8384081;28;20317;-69
2023/03/31 07:33:42;;;;;;;5.13;3.33;;;;;;;12.75;64.73;96681.84;8383471;28;20260;-68
2023/03/31 07:37:46;;;;;;;9.73;3.53;;;;;;;12.90;64.64;96673.75;8383676;28;20237;-68
2023/03/31 07:41:51;;;;;;;6.93;3.60;;;;;;;12.95;65.03;96659.59;8383594;28;20229;-68
2023/03/31 07:45:53;;;;;;;7.33;3.63;;;;;;;12.96;65.10;96661.25;8383435;28;20234;-69
2023/03/31 07:49:56;;;;;;;6.20;3.83;;;;;;;13.17;64.57;96653.59;8383201;28;20377;-69
2023/03/31 07:53:59;;;;;;;7.63;3.97;;;;;;;13.03;65.38;96649.47;8383395;28;20237;-69
2023/03/31 07:58:03;;;;;;;6.47;3.77;;;;;;;12.61;67.30;96647.34;8383070;28;20235;-69
2023/03/31 08:02:06;;;;;;;7.73;4.33;;;;;;;13.29;64.73;96648.31;8382971;28;20524;-69
2023/03/31 08:06:09;;;;;;;7.93;4.83;;;;;;;12.96;65.54;96625.69;8383017;28;20263;-69
2023/03/31 08:10:14;;;;;;;8.90;4.43;;;;;;;12.84;66.84;96637.00;8382758;28;20252;-69
2023/03/31 08:14:21;;;;;;;6.33;4.30;;;;;;;13.11;65.27;96634.91;8382617;28;20228;-69
2023/03/31 08:18:42;;;;;;;9.47;4.50;;;;;;;12.72;67.50;96615.38;8381943;28;20230;-68
2023/03/31 08:22:45;;;;;;;9.87;4.43;;;;;;;12.78;67.35;96614.91;8382435;28;20539;-68
2023/03/31 08:26:47;;;;;;;9.67;5.00;;;;;;;12.59;68.21;96610.25;8382011;28;20512;-68
2023/03/31 08:30:51;;;;;;;8.53;4.43;;;;;;;12.66;67.91;96600.22;8382055;28;20245;-69
2023/03/31 08:34:54;;;;;;;6.37;4.53;;;;;;;12.02;70.89;96579.84;8381998;28;20461;-69
2023/03/31 08:38:57;;;;;;;8.93;4.60;;;;;;;12.39;69.18;96505.28;8382029;28;20230;-69
2023/03/31 08:43:04;;;;;;;7.50;4.30;;;;;;;12.75;68.17;96497.44;8381862;28;20241;-69
2023/03/31 08:47:14;;;;;;;9.23;4.23;;;;;;;12.97;66.92;96507.00;8381390;28;20229;-69
2023/03/31 08:51:20;;;;;;;5.83;4.07;;;;;;;13.27;66.52;96537.59;8381388;28;20232;-69
2023/03/31 08:55:31;;;;;;;5.77;3.63;;;;;;;13.19;66.17;96535.56;8381275;28;20221;-69
2023/03/31 08:59:34;;;;;;;2.47;1.47;;;;;;;14.08;75.19;96523.31;8381242;28;20229;-71
2023/03/31 09:03:44;;;;;;;4.50;3.10;;;;;;;13.93;64.98;96531.56;8381260;28;20234;-70
2023/03/31 09:07:55;;;;;;;4.80;3.30;;;;;;;14.59;64.62;96528.78;8380617;28;20227;-69
2023/03/31 09:12:00;;;;;;;5.23;2.87;;;;;;;14.74;63.73;96513.66;8380656;28;20242;-70
2023/03/31 09:16:05;;;;;;;4.53;3.20;;;;;;;14.58;61.61;96527.13;8380684;28;20222;-70
2023/03/31 09:20:15;;;;;;;5.47;3.40;;;;;;;14.20;62.83;96490.28;8380556;28;20580;-70
2023/03/31 09:24:22;;;;;;;3.77;3.20;;;;;;;13.93;64.04;96519.38;8379919;28;20225;-70
2023/03/31 09:28:30;;;;;;;5.00;3.20;;;;;;;13.84;64.58;96507.09;8380510;28;20286;-70
2023/03/31 09:32:33;;;;;;;5.40;3.53;;;;;;;14.04;64.26;96495.91;8379919;28;20289;-70
2023/03/31 09:36:37;;;;;;;6.97;3.17;;;;;;;14.39;62.79;96499.16;8379939;28;20234;-70
2023/03/31 09:40:40;;;;;;;4.90;3.10;;;;;;;14.20;63.77;96487.66;8379938;28;20326;-70
2023/03/31 09:44:44;;;;;;;6.00;3.23;;;;;;;14.29;63.41;96499.09;8379370;28;20226;-69
2023/03/31 09:48:53;;;;;;;4.43;2.77;;;;;;;14.44;63.05;96491.78;8379595;28;20229;-71
2023/03/31 09:53:04;;;;;;;4.37;2.90;;;;;;;14.15;62.79;96486.41;8378970;28;20541;-71
2023/03/31 09:57:15;;;;;;;4.37;2.47;;;;;;;14.47;62.29;96470.72;8378878;28;20236;-70
2023/03/31 10:01:17;;;;;;;3.27;2.20;;;;;;;14.71;61.77;96478.25;8379117;28;20312;-70
2023/03/31 10:05:29;;;;;;;4.17;2.50;;;;;;;15.15;61.21;96483.22;8379100;28;20224;-71
2023/03/31 10:09:34;;;;;;;5.57;2.40;;;;;;;15.31;58.65;96482.72;8379261;28;20246;-70
2023/03/31 10:13:45;;;;;;;2.67;2.07;;;;;;;16.65;55.62;96489.88;8378960;28;20540;-70
2023/03/31 10:17:48;;;;;;;3.17;2.00;;;;;;;16.51;57.60;96470.25;8378782;28;20232;-70
2023/03/31 10:21:58;;;;;;;3.10;1.60;;;;;;;15.78;57.48;96478.56;8378810;28;20439;-71
2023/03/31 10:26:04;;;;;;;4.77;1.87;;;;;;;15.73;57.11;96467.72;8378545;28;20340;-71
2023/03/31 10:30:12;;;;;;;5.53;2.10;;;;;;;15.56;56.53;96435.25;8378667;28;20537;-72
2023/03/31 10:34:21;;;;;;;5.20;2.47;;;;;;;15.93;53.88;96450.25;8378555;28;20235;-73
2023/03/31 10:38:27;;;;;;;3.47;1.80;;;;;;;16.05;53.79;96464.00;8384232;28;20224;-72
2023/03/31 10:42:37;;;;;;;4.50;1.80;;;;;;;15.91;53.30;96454.78;8385677;28;20238;-73
2023/03/31 10:46:42;;;;;;;5.70;2.03;;;;;;;16.38;53.32;96448.84;8385125;28;20430;-72
2023/03/31 10:50:45;;;;;;;4.03;1.93;;;;;;;17.73;50.07;96443.91;8384840;28;20222;-73
2023/03/31 10:54:55;;;;;;;4.40;1.90;;;;;;;17.76;47.84;96422.69;8384773;28;20425;-72
2023/03/31 10:59:12;;;;;;;3.07;1.67;;;;;;;17.69;47.55;96410.34;8384832;28;20328;-73
2023/03/31 11:03:38;;;;;;;7.03;2.10;;;;;;;17.15;48.87;96418.13;8384848;28;20234;-73
2023/03/31 11:07:54;;;;;;;7.90;2.10;;;;;;;16.51;52.27;96425.00;8384249;28;20228;-70
2023/03/31 11:12:01;;;;;;;6.60;2.00;;;;;;;16.00;53.71;96412.19;8384475;28;20238;-72
2023/03/31 11:16:15;;;;;;;5.57;2.00;;;;;;;16.20;54.26;96413.00;8384414;28;20258;-71
2023/03/31 11:20:24;;;;;;;6.67;1.93;;;;;;;16.44;56.26;96393.41;8384238;28;20343;-71
2023/03/31 11:24:56;;;;;;;4.77;2.03;;;;;;;16.77;56.08;96388.56;8382634;28;20435;-71
2023/03/31 11:29:06;;;;;;;5.43;2.30;;;;;;;17.43;54.16;96384.91;8383813;28;20228;-72
2023/03/31 11:33:27;;;;;;;3.50;1.80;;;;;;;17.06;56.29;96403.31;8383862;28;20403;-71
2023/03/31 11:37:40;;;;;;;4.10;1.60;;;;;;;17.11;57.19;96416.78;8383739;28;20558;-71
2023/03/31 11:41:47;;;;;;;4.23;1.40;;;;;;;15.89;56.80;96425.38;8383661;28;20546;-72
2023/03/31 11:45:53;;;;;;;3.20;1.20;;;;;;;14.83;58.62;96412.06;8381339;28;20231;-72
2023/03/31 11:49:59;;;;;;;2.83;1.00;;;;;;;14.18;57.46;96408.03;8380682;28;20291;-72
2023/03/31 11:54:05;;;;;;;1.63;0.90;;;;;;;14.23;56.96;96405.88;8383028;28;20254;-70
2023/03/31 11:58:12;;;;;;;1.87;0.77;;;;;;;14.34;55.55;96444.84;8383009;28;20226;-71
2023/03/31 12:02:18;;;;;;;0.67;0.50;;;;;;;14.67;53.98;96403.91;8382695;28;20235;-71
2023/03/31 12:06:26;;;;;;;0.77;0.50;;;;;;;14.61;53.06;96422.69;8381215;28;20264;-71
2023/03/31 12:10:34;;;;;;;0.93;0.33;;;;;;;15.00;52.15;96421.03;8382240;28;20256;-71
2023/03/31 12:14:39;;;;;;;0.60;0.50;;;;;;;14.64;51.60;96404.16;8382210;28;20247;-71
2023/03/31 12:18:47;;;;;;;0.60;0.50;;;;;;;14.30;53.96;96407.00;8381791;28;20248;-71
2023/03/31 12:22:51;;;;;;;1.40;0.70;;;;;;;14.70;53.06;96431.47;8382110;28;20528;-71
2023/03/31 12:27:03;;;;;;;1.50;0.53;;;;;;;15.01;53.41;96414.84;8381792;28;20230;-71
2023/03/31 12:31:07;;;;;;;1.17;0.67;;;;;;;14.65;55.05;96422.28;8380464;28;20228;-72
2023/03/31 12:35:14;;;;;;;1.33;0.70;;;;;;;15.21;52.72;96387.03;8381798;28;20425;-71
2023/03/31 12:39:26;;;;;;;1.20;0.70;;;;;;;15.48;52.18;96369.06;8381661;28;20228;-71
2023/03/31 12:44:14;;;;;;;1.33;0.60;;;;;;;15.52;51.65;96378.28;8381354;28;20494;-71
2023/03/31 12:48:44;;;;;;;1.70;0.70;;;;;;;15.63;51.53;96368.53;8381116;28;20224;-73
2023/03/31 12:52:52;;;;;;;1.77;0.80;;;;;;;15.63;51.73;96414.66;8378839;28;20232;-70
2023/03/31 12:57:15;;;;;;;3.13;1.03;;;;;;;14.47;55.34;96453.28;8380850;28;20431;-71
2023/03/31 13:01:20;;;;;;;2.90;1.10;;;;;;;14.01;58.81;96458.88;8379850;28;20237;-71
2023/03/31 13:05:48;;;;;;;2.80;0.97;;;;;;;14.06;57.79;96480.16;8378904;28;20470;-71
2023/03/31 13:09:57;;;;;;;2.30;0.93;;;;;;;13.73;59.04;96463.75;8380417;28;20234;-72
2023/03/31 13:14:03;;;;;;;1.00;0.60;;;;;;;13.40;60.01;96438.66;8380260;28;20240;-72
2023/03/31 13:18:07;;;;;;;2.20;1.00;;;;;;;13.94;59.21;96408.31;8380391;28;20224;-72
2023/03/31 13:22:28;;;;;;;1.17;0.50;;;;;;;14.10;56.91;96394.84;8380429;28;20231;-72
2023/03/31 13:26:39;;;;;;;1.47;0.80;;;;;;;14.64;57.38;96378.09;8380070;28;20238;-71
2023/03/31 13:30:49;;;;;;;3.70;1.20;;;;;;;15.28;53.97;96358.63;8379456;28;20228;-70
2023/03/31 13:34:57;;;;;;;2.77;1.10;;;;;;;15.43;53.42;96353.84;8379790;28;20236;-71
2023/03/31 13:39:11;;;;;;;2.67;1.20;;;;;;;16.11;52.95;96351.16;8379810;28;20251;-71
2023/03/31 13:43:37;;;;;;;2.40;1.00;;;;;;;16.48;53.24;96347.72;8379497;28;20259;-71
2023/03/31 13:47:52;;;;;;;3.23;1.07;;;;;;;16.98;51.50;96339.53;8350051;28;20399;-71
2023/03/31 13:51:58;;;;;;;3.33;1.30;;;;;;;17.22;49.40;96338.09;8379379;28;20243;-71
2023/03/31 13:56:09;;;;;;;3.57;1.23;;;;;;;17.05;49.82;96336.31;8379483;28;20252;-72
2023/03/31 14:00:30;;;;;;;5.93;3.63;;;;;;;17.00;49.83;96353.25;8379476;28;20224;-71
2023/03/31 14:05:01;;;;;;;4.23;2.60;;;;;;;16.94;49.63;96356.44;8379289;28;20431;-71
2023/03/31 14:09:07;;;;;;;2.77;1.40;;;;;;;17.42;49.28;96358.88;8378597;28;20412;-71
2023/03/31 14:13:11;;;;;;;4.17;1.50;;;;;;;17.79;48.81;96345.63;8378676;28;20232;-71
2023/03/31 14:17:14;;;;;;;2.53;1.30;;;;;;;17.57;45.32;96336.44;8379016;28;20615;-70
2023/03/31 14:21:24;;;;;;;2.30;1.13;;;;;;;17.18;44.25;96339.38;8378980;28;20407;-70
2023/03/31 14:25:39;;;;;;;2.50;0.97;;;;;;;16.92;44.13;96328.81;8378701;28;20416;-70
2023/03/31 14:29:47;;;;;;;1.90;1.00;;;;;;;15.92;45.68;96332.94;8378529;28;20239;-70
2023/03/31 14:34:06;;;;;;;1.50;0.80;;;;;;;16.13;44.84;96333.56;8378430;28;20248;-71
2023/03/31 14:38:14;;;;;;;2.47;0.90;;;;;;;16.60;43.34;96317.84;8378500;28;20419;-70
2023/03/31 14:42:19;;;;;;;2.50;0.80;;;;;;;16.84;44.28;96324.31;8378317;28;20235;-70
2023/03/31 14:46:22;;;;;;;1.63;0.93;;;;;;;16.48;44.84;96311.13;8378563;28;20668;-72
2023/03/31 14:50:30;;;;;;;2.20;0.87;;;;;;;16.60;45.19;96323.06;8378498;28;20240;-71
2023/03/31 14:54:37;;;;;;;3.20;1.17;;;;;;;16.44;45.76;96312.41;8378277;28;20542;-71
2023/03/31 14:58:42;;;;;;;2.70;0.90;;;;;;;16.72;45.45;96315.84;8378167;28;20238;-71
2023/03/31 15:02:45;;;;;;;3.03;1.60;;;;;;;16.58;44.28;96304.09;8377943;28;20232;-70
2023/03/31 15:06:49;;;;;;;3.37;1.00;;;;;;;17.36;42.92;96302.75;8378415;28;20478;-71
2023/03/31 15:10:55;;;;;;;2.27;1.00;;;;;;;17.25;43.78;96301.19;8378641;28;20244;-70
2023/03/31 15:15:15;;;;;;;1.67;0.83;;;;;;;16.93;43.83;96291.25;8377687;28;20528;-71
2023/03/31 15:19:20;;;;;;;2.97;1.20;;;;;;;16.72;42.95;96297.53;8378097;28;20703;-71
2023/03/31 15:23:26;;;;;;;2.60;1.30;;;;;;;16.95;43.79;96302.38;8381384;28;20233;-71
2023/03/31 15:27:34;;;;;;;2.47;1.53;;;;;;;17.04;43.39;96306.72;8384056;28;20330;-70
2023/03/31 15:31:39;;;;;;;2.50;1.30;;;;;;;16.77;43.68;96307.53;8383869;28;20296;-72
2023/03/31 15:35:42;;;;;;;4.60;2.83;;;;;;;16.51;43.95;96297.78;8383452;28;20232;-71
2023/03/31 15:39:47;;;;;;;2.97;0.90;;;;;;;15.98;44.36;96301.84;8383844;28;20555;-71
2023/03/31 15:44:04;;;;;;;2.23;0.80;;;;;;;15.71;44.45;96296.56;8383739;28;20304;-71
2023/03/31 15:48:17;;;;;;;2.43;1.13;;;;;;;15.71;44.32;96281.72;8383255;28;20226;-71
2023/03/31 15:52:32;;;;;;;2.17;1.00;;;;;;;15.48;44.63;96228.19;8383369;28;20231;-72
2023/03/31 15:56:37;;;;;;;3.60;1.13;;;;;;;15.76;44.93;96273.47;8383030;28;20540;-71
2023/03/31 16:00:45;;;;;;;3.33;1.17;;;;;;;15.58;44.06;96295.06;8382624;28;20236;-72
2023/03/31 16:04:50;;;;;;;2.63;0.70;;;;;;;15.66;44.39;96288.31;8382474;28;20229;-72
2023/03/31 16:08:58;;;;;;;2.83;1.00;;;;;;;15.57;44.90;96279.53;8382562;28;20229;-71
2023/03/31 16:13:04;;;;;;;2.37;0.90;;;;;;;15.62;44.03;96287.78;8382332;28;20544;-71
2023/03/31 16:17:10;;;;;;;2.30;0.93;;;;;;;15.66;44.07;96280.50;8382371;28;20229;-71
2023/03/31 16:21:15;;;;;;;3.53;1.00;;;;;;;15.61;44.87;96302.59;8382253;28;20548;-71
2023/03/31 16:25:20;;;;;;;3.73;1.53;;;;;;;15.57;45.01;96292.56;8381997;28;20225;-71
2023/03/31 16:29:22;;;;;;;4.03;1.17;;;;;;;15.45;45.92;96302.34;8381813;28;20226;-71
2023/03/31 16:33:27;;;;;;;2.43;1.07;;;;;;;15.40;46.16;96294.09;8381834;28;20229;-71
2023/03/31 16:37:29;;;;;;;3.37;1.27;;;;;;;15.48;45.90;96306.44;8382599;28;20257;-72
2023/03/31 16:41:33;;;;;;;1.90;0.83;;;;;;;15.37;46.03;96307.44;8381824;28;20237;-72
2023/03/31 16:45:36;;;;;;;2.80;0.90;;;;;;;14.91;46.39;96316.72;8380571;28;20225;-71
2023/03/31 16:49:42;;;;;;;2.33;0.90;;;;;;;14.88;47.62;96314.41;8381503;28;20229;-72
2023/03/31 16:53:46;;;;;;;3.37;0.90;;;;;;;14.64;49.03;96319.03;8381088;28;20225;-71
2023/03/31 16:57:49;;;;;;;3.03;1.00;;;;;;;14.82;49.84;96331.41;8381885;28;20236;-70
2023/03/31 17:01:54;;;;;;;2.37;1.07;;;;;;;14.65;50.74;96333.69;8380871;28;20225;-70
2023/03/31 17:05:59;;;;;;;4.23;1.30;;;;;;;14.68;50.95;96330.00;8380789;28;20239;-71
2023/03/31 17:10:02;;;;;;;3.60;1.50;;;;;;;14.75;50.76;96325.06;8381157;28;20399;-71
2023/03/31 17:14:05;;;;;;;3.27;1.47;;;;;;;14.71;51.40;96323.69;8380597;28;20233;-71
2023/03/31 17:18:08;;;;;;;5.53;1.30;;;;;;;14.53;51.79;96326.09;8380277;28;20213;-72
2023/03/31 17:22:14;;;;;;;2.83;1.40;;;;;;;14.82;51.31;96319.19;8380645;28;20298;-72
2023/03/31 17:26:16;;;;;;;4.13;1.33;;;;;;;14.71;51.30;96326.31;8380340;28;20234;-72
2023/03/31 17:30:20;;;;;;;4.27;1.40;;;;;;;14.52;51.26;96334.88;8379661;28;20220;-71
2023/03/31 17:34:25;;;;;;;4.73;1.50;;;;;;;14.65;51.42;96336.28;8380021;28;20239;-72
2023/03/31 17:38:29;;;;;;;3.13;1.40;;;;;;;14.53;51.90;96336.53;8380421;28;20241;-72
2023/03/31 17:42:32;;;;;;;5.03;1.60;;;;;;;14.68;51.34;96329.16;8379489;28;20232;-72
2023/03/31 17:46:37;;;;;;;3.50;1.53;;;;;;;14.41;52.00;96328.81;8379241;28;20242;-71
2023/03/31 17:50:40;;;;;;;5.37;1.70;;;;;;;14.60;51.74;96333.28;8380071;28;20225;-71
2023/03/31 17:54:45;;;;;;;2.87;1.30;;;;;;;14.49;51.17;96333.34;8379221;28;20235;-71
2023/03/31 17:58:51;;;;;;;3.80;1.10;;;;;;;14.56;50.60;96344.88;8379845;28;20229;-71
2023/03/31 18:02:54;;;;;;;3.57;1.33;;;;;;;14.54;50.60;96348.56;8378562;28;20281;-71
2023/03/31 18:06:57;;;;;;;4.57;1.53;;;;;;;14.64;51.00;96349.44;8378194;28;20397;-71
2023/03/31 18:11:03;;;;;;;4.33;1.03;;;;;;;14.49;49.86;96354.19;8379101;28;20502;-71
2023/03/31 18:15:09;;;;;;;4.20;1.40;;;;;;;14.50;50.44;96344.59;8378687;28;20241;-71
2023/03/31 18:19:11;;;;;;;3.03;1.40;;;;;;;14.37;50.66;96350.84;8378992;28;20403;-71
2023/03/31 18:23:14;;;;;;;3.70;1.20;;;;;;;14.40;50.32;96349.75;8378568;28;20431;-71
2023/03/31 18:27:19;;;;;;;2.63;1.33;;;;;;;14.27;50.28;96342.16;8378935;28;20551;-72
2023/03/31 18:31:23;;;;;;;5.43;1.50;;;;;;;14.17;50.81;96344.72;8378884;28;20235;-71
2023/03/31 18:35:26;;;;;;;2.63;1.00;;;;;;;14.32;49.87;96340.00;8378711;28;20233;-72
2023/03/31 18:39:29;;;;;;;1.93;1.00;;;;;;;14.32;49.86;96350.41;8378594;28;20286;-71
2023/03/31 18:43:33;;;;;;;4.63;1.50;;;;;;;14.96;61.83;96353.66;8378597;28;20553;-72
2023/03/31 18:47:36;;;;;;;4.63;1.37;;;;;;;15.21;52.20;96362.72;8378456;28;20291;-72
2023/03/31 18:51:39;;;;;;;2.67;0.80;;;;;;;14.79;49.83;96366.38;8378678;28;20229;-72
2023/03/31 18:55:42;;;;;;;3.17;0.80;;;;;;;14.55;50.00;96373.69;8377725;28;20301;-71
2023/03/31 18:59:46;;;;;;;1.60;0.97;;;;;;;14.35;50.54;96384.00;8384711;28;20235;-71
2023/03/31 19:03:49;;;;;;;2.80;1.00;;;;;;;14.36;51.56;96385.66;8384939;28;20233;-70
2023/03/31 19:07:52;;;;;;;1.60;0.80;;;;;;;13.98;51.57;96379.28;8384767;28;20236;-72
2023/03/31 19:11:56;;;;;;;3.30;0.83;;;;;;;13.98;51.94;96394.91;8384953;28;20232;-72
2023/03/31 19:16:00;;;;;;;2.17;1.00;;;;;;;14.12;51.53;96398.13;8384560;28;20244;-72
2023/03/31 19:20:04;;;;;;;1.63;0.77;;;;;;;13.73;52.72;96403.06;8384546;28;20311;-72
2023/03/31 19:24:08;;;;;;;2.63;0.70;;;;;;;13.81;52.32;96401.50;8384378;28;20242;-72